sensor_id;sensor_type;location;lat;lon;timestamp;P1;durP1;ratioP1;P2;durP2;ratioP2
60076;SDS011;45950;45.208;20.374;2022-10-16T00:00:11;8.55;;;5.38;;
60076;SDS011;45950;45.208;20.374;2022-10-16T00:02:38;7.30;;;5.30;;
60076;SDS011;45950;45.208;20.374;2022-10-16T00:05:04;9.88;;;5.20;;
60076;SDS011;45950;45.208;20.374;2022-10-16T00:07:32;10.23;;;5.38;;
60076;SDS011;45950;45.208;20.374;2022-10-16T00:09:59;7.85;;;5.25;;
60076;SDS011;45950;45.208;20.374;2022-10-16T00:12:25;9.65;;;5.20;;
60076;SDS011;45950;45.208;20.374;2022-10-16T00:14:52;6.00;;;4.43;;
60076;SDS011;45950;45.208;20.374;2022-10-16T00:17:19;8.00;;;4.88;;
60076;SDS011;45950;45.208;20.374;2022-10-16T00:19:45;9.32;;;5.22;;
60076;SDS011;45950;45.208;20.374;2022-10-16T00:22:12;9.90;;;5.43;;
60076;SDS011;45950;45.208;20.374;2022-10-16T00:24:40;12.30;;;5.47;;
60076;SDS011;45950;45.208;20.374;2022-10-16T00:27:06;7.03;;;5.00;;
60076;SDS011;45950;45.208;20.374;2022-10-16T00:29:33;8.55;;;5.43;;
60076;SDS011;45950;45.208;20.374;2022-10-16T00:32:00;9.98;;;5.65;;
60076;SDS011;45950;45.208;20.374;2022-10-16T00:34:26;8.10;;;4.65;;
60076;SDS011;45950;45.208;20.374;2022-10-16T00:36:53;9.10;;;4.65;;
60076;SDS011;45950;45.208;20.374;2022-10-16T00:39:20;8.52;;;5.00;;
60076;SDS011;45950;45.208;20.374;2022-10-16T00:41:48;7.53;;;4.80;;
60076;SDS011;45950;45.208;20.374;2022-10-16T00:47:01;8.45;;;4.57;;
60076;SDS011;45950;45.208;20.374;2022-10-16T00:49:27;9.43;;;4.80;;
60076;SDS011;45950;45.208;20.374;2022-10-16T00:51:54;6.93;;;4.47;;
60076;SDS011;45950;45.208;20.374;2022-10-16T00:54:22;7.18;;;4.43;;
60076;SDS011;45950;45.208;20.374;2022-10-16T00:56:51;11.90;;;5.05;;
60076;SDS011;45950;45.208;20.374;2022-10-16T00:59:20;6.82;;;4.25;;
60076;SDS011;45950;45.208;20.374;2022-10-16T01:01:49;9.52;;;5.22;;
60076;SDS011;45950;45.208;20.374;2022-10-16T01:04:16;5.70;;;3.83;;
60076;SDS011;45950;45.208;20.374;2022-10-16T01:06:47;7.88;;;4.07;;
60076;SDS011;45950;45.208;20.374;2022-10-16T01:09:17;6.60;;;3.95;;
60076;SDS011;45950;45.208;20.374;2022-10-16T01:11:49;7.18;;;4.65;;
60076;SDS011;45950;45.208;20.374;2022-10-16T01:14:24;7.93;;;4.60;;
60076;SDS011;45950;45.208;20.374;2022-10-16T01:16:53;10.15;;;4.95;;
60076;SDS011;45950;45.208;20.374;2022-10-16T01:19:25;9.43;;;5.00;;
60076;SDS011;45950;45.208;20.374;2022-10-16T01:21:52;8.00;;;5.18;;
60076;SDS011;45950;45.208;20.374;2022-10-16T01:24:22;7.78;;;4.80;;
60076;SDS011;45950;45.208;20.374;2022-10-16T01:27:03;6.97;;;4.53;;
60076;SDS011;45950;45.208;20.374;2022-10-16T01:29:32;7.57;;;4.90;;
60076;SDS011;45950;45.208;20.374;2022-10-16T01:32:01;10.18;;;5.05;;
60076;SDS011;45950;45.208;20.374;2022-10-16T01:34:32;7.60;;;4.78;;
60076;SDS011;45950;45.208;20.374;2022-10-16T01:37:00;6.88;;;5.15;;
60076;SDS011;45950;45.208;20.374;2022-10-16T01:39:31;8.82;;;5.30;;
60076;SDS011;45950;45.208;20.374;2022-10-16T01:42:01;10.55;;;5.57;;
60076;SDS011;45950;45.208;20.374;2022-10-16T01:44:32;8.85;;;5.35;;
60076;SDS011;45950;45.208;20.374;2022-10-16T01:47:01;7.20;;;4.85;;
60076;SDS011;45950;45.208;20.374;2022-10-16T01:49:29;9.05;;;4.82;;
60076;SDS011;45950;45.208;20.374;2022-10-16T01:51:57;7.85;;;5.18;;
60076;SDS011;45950;45.208;20.374;2022-10-16T01:54:25;9.95;;;6.30;;
60076;SDS011;45950;45.208;20.374;2022-10-16T01:56:54;10.48;;;5.82;;
60076;SDS011;45950;45.208;20.374;2022-10-16T01:59:21;8.82;;;5.57;;
60076;SDS011;45950;45.208;20.374;2022-10-16T02:01:53;9.93;;;5.40;;
60076;SDS011;45950;45.208;20.374;2022-10-16T02:04:23;9.20;;;5.53;;
60076;SDS011;45950;45.208;20.374;2022-10-16T02:06:50;8.07;;;5.72;;
60076;SDS011;45950;45.208;20.374;2022-10-16T02:09:18;9.23;;;5.70;;
60076;SDS011;45950;45.208;20.374;2022-10-16T02:11:45;12.32;;;6.47;;
60076;SDS011;45950;45.208;20.374;2022-10-16T02:14:11;10.55;;;5.90;;
60076;SDS011;45950;45.208;20.374;2022-10-16T02:16:39;8.90;;;6.07;;
60076;SDS011;45950;45.208;20.374;2022-10-16T02:19:07;9.38;;;5.70;;
60076;SDS011;45950;45.208;20.374;2022-10-16T02:21:36;8.75;;;5.40;;
60076;SDS011;45950;45.208;20.374;2022-10-16T02:24:08;7.82;;;5.28;;
60076;SDS011;45950;45.208;20.374;2022-10-16T02:26:41;8.25;;;5.05;;
60076;SDS011;45950;45.208;20.374;2022-10-16T02:29:12;8.73;;;5.33;;
60076;SDS011;45950;45.208;20.374;2022-10-16T02:31:41;8.80;;;5.30;;
60076;SDS011;45950;45.208;20.374;2022-10-16T02:34:10;8.85;;;5.28;;
60076;SDS011;45950;45.208;20.374;2022-10-16T02:36:37;9.00;;;5.72;;
60076;SDS011;45950;45.208;20.374;2022-10-16T02:39:04;8.15;;;5.93;;
60076;SDS011;45950;45.208;20.374;2022-10-16T02:41:31;9.77;;;6.07;;
60076;SDS011;45950;45.208;20.374;2022-10-16T02:43:58;9.98;;;6.53;;
60076;SDS011;45950;45.208;20.374;2022-10-16T02:46:25;10.00;;;6.03;;
60076;SDS011;45950;45.208;20.374;2022-10-16T02:48:52;9.43;;;6.20;;
60076;SDS011;45950;45.208;20.374;2022-10-16T02:51:20;8.70;;;6.25;;
60076;SDS011;45950;45.208;20.374;2022-10-16T02:53:46;8.88;;;6.70;;
60076;SDS011;45950;45.208;20.374;2022-10-16T02:56:13;10.18;;;5.88;;
60076;SDS011;45950;45.208;20.374;2022-10-16T02:58:39;8.77;;;6.28;;
60076;SDS011;45950;45.208;20.374;2022-10-16T03:01:06;11.25;;;6.53;;
60076;SDS011;45950;45.208;20.374;2022-10-16T03:03:32;11.38;;;6.07;;
60076;SDS011;45950;45.208;20.374;2022-10-16T03:05:59;8.52;;;5.63;;
60076;SDS011;45950;45.208;20.374;2022-10-16T03:08:27;9.93;;;6.72;;
60076;SDS011;45950;45.208;20.374;2022-10-16T03:10:54;6.70;;;5.60;;
60076;SDS011;45950;45.208;20.374;2022-10-16T03:13:21;8.10;;;5.63;;
60076;SDS011;45950;45.208;20.374;2022-10-16T03:15:47;8.48;;;6.40;;
60076;SDS011;45950;45.208;20.374;2022-10-16T03:18:14;8.18;;;5.63;;
60076;SDS011;45950;45.208;20.374;2022-10-16T03:20:42;10.25;;;6.70;;
60076;SDS011;45950;45.208;20.374;2022-10-16T03:23:08;11.05;;;6.70;;
60076;SDS011;45950;45.208;20.374;2022-10-16T03:25:36;9.30;;;6.68;;
60076;SDS011;45950;45.208;20.374;2022-10-16T03:28:03;8.18;;;6.25;;
60076;SDS011;45950;45.208;20.374;2022-10-16T03:30:30;9.52;;;6.38;;
60076;SDS011;45950;45.208;20.374;2022-10-16T03:32:56;8.85;;;5.57;;
60076;SDS011;45950;45.208;20.374;2022-10-16T03:35:23;7.82;;;5.82;;
60076;SDS011;45950;45.208;20.374;2022-10-16T03:37:50;9.15;;;6.45;;
60076;SDS011;45950;45.208;20.374;2022-10-16T03:40:16;8.73;;;6.00;;
60076;SDS011;45950;45.208;20.374;2022-10-16T03:42:44;10.15;;;5.60;;
60076;SDS011;45950;45.208;20.374;2022-10-16T03:45:11;8.32;;;5.80;;
60076;SDS011;45950;45.208;20.374;2022-10-16T03:47:38;9.73;;;6.72;;
60076;SDS011;45950;45.208;20.374;2022-10-16T03:50:05;10.85;;;6.70;;
60076;SDS011;45950;45.208;20.374;2022-10-16T03:52:31;11.23;;;6.32;;
60076;SDS011;45950;45.208;20.374;2022-10-16T03:54:58;10.38;;;5.82;;
60076;SDS011;45950;45.208;20.374;2022-10-16T03:57:25;8.85;;;5.90;;
60076;SDS011;45950;45.208;20.374;2022-10-16T03:59:54;10.10;;;6.53;;
60076;SDS011;45950;45.208;20.374;2022-10-16T04:02:20;11.13;;;6.00;;
60076;SDS011;45950;45.208;20.374;2022-10-16T04:04:47;8.98;;;6.10;;
60076;SDS011;45950;45.208;20.374;2022-10-16T04:07:13;8.85;;;5.80;;
60076;SDS011;45950;45.208;20.374;2022-10-16T04:09:40;10.02;;;5.80;;
60076;SDS011;45950;45.208;20.374;2022-10-16T04:12:07;10.15;;;6.13;;
60076;SDS011;45950;45.208;20.374;2022-10-16T04:14:33;9.30;;;5.75;;
60076;SDS011;45950;45.208;20.374;2022-10-16T04:17:01;8.82;;;6.18;;
60076;SDS011;45950;45.208;20.374;2022-10-16T04:19:28;8.88;;;5.95;;
60076;SDS011;45950;45.208;20.374;2022-10-16T04:21:55;10.82;;;6.72;;
60076;SDS011;45950;45.208;20.374;2022-10-16T04:24:21;9.55;;;6.03;;
60076;SDS011;45950;45.208;20.374;2022-10-16T04:26:48;10.60;;;6.63;;
60076;SDS011;45950;45.208;20.374;2022-10-16T04:29:14;9.15;;;6.50;;
60076;SDS011;45950;45.208;20.374;2022-10-16T04:31:41;12.13;;;6.75;;
60076;SDS011;45950;45.208;20.374;2022-10-16T04:34:09;45.10;;;24.30;;
60076;SDS011;45950;45.208;20.374;2022-10-16T04:36:36;31.00;;;21.45;;
60076;SDS011;45950;45.208;20.374;2022-10-16T04:39:02;24.08;;;16.15;;
60076;SDS011;45950;45.208;20.374;2022-10-16T04:41:29;18.48;;;11.52;;
60076;SDS011;45950;45.208;20.374;2022-10-16T04:43:56;13.85;;;10.07;;
60076;SDS011;45950;45.208;20.374;2022-10-16T04:46:22;13.02;;;10.38;;
60076;SDS011;45950;45.208;20.374;2022-10-16T04:48:49;11.88;;;8.57;;
60076;SDS011;45950;45.208;20.374;2022-10-16T04:51:17;11.35;;;7.43;;
60076;SDS011;45950;45.208;20.374;2022-10-16T04:53:44;12.80;;;7.57;;
60076;SDS011;45950;45.208;20.374;2022-10-16T04:56:11;15.52;;;10.63;;
60076;SDS011;45950;45.208;20.374;2022-10-16T04:58:37;20.80;;;10.88;;
60076;SDS011;45950;45.208;20.374;2022-10-16T05:01:04;12.80;;;9.18;;
60076;SDS011;45950;45.208;20.374;2022-10-16T05:03:30;24.13;;;20.38;;
60076;SDS011;45950;45.208;20.374;2022-10-16T05:05:57;30.23;;;23.58;;
60076;SDS011;45950;45.208;20.374;2022-10-16T05:08:25;15.52;;;10.70;;
60076;SDS011;45950;45.208;20.374;2022-10-16T05:10:52;13.98;;;9.57;;
60076;SDS011;45950;45.208;20.374;2022-10-16T05:13:18;13.02;;;8.73;;
60076;SDS011;45950;45.208;20.374;2022-10-16T05:15:46;12.35;;;8.10;;
60076;SDS011;45950;45.208;20.374;2022-10-16T05:18:13;9.27;;;6.80;;
60076;SDS011;45950;45.208;20.374;2022-10-16T05:20:40;10.43;;;7.43;;
60076;SDS011;45950;45.208;20.374;2022-10-16T05:23:07;12.25;;;7.80;;
60076;SDS011;45950;45.208;20.374;2022-10-16T05:25:36;12.93;;;7.15;;
60076;SDS011;45950;45.208;20.374;2022-10-16T05:28:03;8.98;;;6.95;;
60076;SDS011;45950;45.208;20.374;2022-10-16T05:30:30;9.85;;;6.55;;
60076;SDS011;45950;45.208;20.374;2022-10-16T05:32:56;9.65;;;6.60;;
60076;SDS011;45950;45.208;20.374;2022-10-16T05:35:23;9.45;;;5.72;;
60076;SDS011;45950;45.208;20.374;2022-10-16T05:37:50;10.10;;;7.07;;
60076;SDS011;45950;45.208;20.374;2022-10-16T05:40:16;9.55;;;6.50;;
60076;SDS011;45950;45.208;20.374;2022-10-16T05:42:44;9.45;;;6.53;;
60076;SDS011;45950;45.208;20.374;2022-10-16T05:45:11;38.33;;;21.95;;
60076;SDS011;45950;45.208;20.374;2022-10-16T05:47:38;32.72;;;17.73;;
60076;SDS011;45950;45.208;20.374;2022-10-16T05:50:05;55.85;;;29.10;;
60076;SDS011;45950;45.208;20.374;2022-10-16T05:52:31;18.02;;;11.35;;
60076;SDS011;45950;45.208;20.374;2022-10-16T05:54:58;11.25;;;8.00;;
60076;SDS011;45950;45.208;20.374;2022-10-16T05:57:25;10.82;;;6.93;;
60076;SDS011;45950;45.208;20.374;2022-10-16T05:59:53;12.95;;;7.03;;
60076;SDS011;45950;45.208;20.374;2022-10-16T06:02:19;13.70;;;8.50;;
60076;SDS011;45950;45.208;20.374;2022-10-16T06:04:51;8.63;;;6.47;;
60076;SDS011;45950;45.208;20.374;2022-10-16T06:07:19;9.50;;;6.75;;
60076;SDS011;45950;45.208;20.374;2022-10-16T06:09:47;9.38;;;6.32;;
60076;SDS011;45950;45.208;20.374;2022-10-16T06:12:14;9.32;;;6.32;;
60076;SDS011;45950;45.208;20.374;2022-10-16T06:14:40;10.80;;;6.97;;
60076;SDS011;45950;45.208;20.374;2022-10-16T06:17:08;11.27;;;7.13;;
60076;SDS011;45950;45.208;20.374;2022-10-16T06:19:35;8.85;;;6.22;;
60076;SDS011;45950;45.208;20.374;2022-10-16T06:22:02;9.52;;;6.18;;
60076;SDS011;45950;45.208;20.374;2022-10-16T06:24:29;10.02;;;6.35;;
60076;SDS011;45950;45.208;20.374;2022-10-16T06:26:56;9.57;;;7.28;;
60076;SDS011;45950;45.208;20.374;2022-10-16T06:29:22;10.25;;;6.28;;
60076;SDS011;45950;45.208;20.374;2022-10-16T06:31:49;9.75;;;6.00;;
60076;SDS011;45950;45.208;20.374;2022-10-16T06:34:17;6.15;;;5.18;;
60076;SDS011;45950;45.208;20.374;2022-10-16T06:36:43;9.82;;;5.53;;
60076;SDS011;45950;45.208;20.374;2022-10-16T06:39:10;8.30;;;6.07;;
60076;SDS011;45950;45.208;20.374;2022-10-16T06:41:37;9.00;;;6.10;;
60076;SDS011;45950;45.208;20.374;2022-10-16T06:44:05;7.80;;;5.57;;
60076;SDS011;45950;45.208;20.374;2022-10-16T06:46:31;8.27;;;5.55;;
60076;SDS011;45950;45.208;20.374;2022-10-16T06:48:58;7.68;;;5.25;;
60076;SDS011;45950;45.208;20.374;2022-10-16T06:51:26;9.02;;;5.97;;
60076;SDS011;45950;45.208;20.374;2022-10-16T06:53:53;11.00;;;6.75;;
60076;SDS011;45950;45.208;20.374;2022-10-16T06:56:22;7.95;;;5.50;;
60076;SDS011;45950;45.208;20.374;2022-10-16T06:58:50;11.45;;;6.32;;
60076;SDS011;45950;45.208;20.374;2022-10-16T07:01:18;10.88;;;5.28;;
60076;SDS011;45950;45.208;20.374;2022-10-16T07:03:45;8.98;;;5.57;;
60076;SDS011;45950;45.208;20.374;2022-10-16T07:06:13;7.88;;;4.85;;
60076;SDS011;45950;45.208;20.374;2022-10-16T07:08:42;10.30;;;5.63;;
60076;SDS011;45950;45.208;20.374;2022-10-16T07:11:09;10.18;;;5.88;;
60076;SDS011;45950;45.208;20.374;2022-10-16T07:13:37;11.15;;;5.30;;
60076;SDS011;45950;45.208;20.374;2022-10-16T07:16:04;12.07;;;5.72;;
60076;SDS011;45950;45.208;20.374;2022-10-16T07:18:31;8.45;;;5.53;;
60076;SDS011;45950;45.208;20.374;2022-10-16T07:21:02;7.45;;;5.03;;
60076;SDS011;45950;45.208;20.374;2022-10-16T07:23:29;8.32;;;4.95;;
60076;SDS011;45950;45.208;20.374;2022-10-16T07:25:57;7.63;;;5.03;;
60076;SDS011;45950;45.208;20.374;2022-10-16T07:28:23;7.00;;;4.65;;
60076;SDS011;45950;45.208;20.374;2022-10-16T07:30:50;9.75;;;5.60;;
60076;SDS011;45950;45.208;20.374;2022-10-16T07:33:16;6.35;;;5.00;;
60076;SDS011;45950;45.208;20.374;2022-10-16T07:35:52;7.18;;;5.30;;
60076;SDS011;45950;45.208;20.374;2022-10-16T07:38:19;7.40;;;4.80;;
60076;SDS011;45950;45.208;20.374;2022-10-16T07:40:46;8.00;;;4.60;;
60076;SDS011;45950;45.208;20.374;2022-10-16T07:43:14;8.30;;;5.45;;
60076;SDS011;45950;45.208;20.374;2022-10-16T07:45:47;8.18;;;5.38;;
60076;SDS011;45950;45.208;20.374;2022-10-16T07:48:14;7.05;;;5.20;;
60076;SDS011;45950;45.208;20.374;2022-10-16T07:50:41;10.10;;;5.13;;
60076;SDS011;45950;45.208;20.374;2022-10-16T07:53:08;9.35;;;6.05;;
60076;SDS011;45950;45.208;20.374;2022-10-16T07:55:34;19.27;;;10.75;;
60076;SDS011;45950;45.208;20.374;2022-10-16T07:58:01;27.33;;;13.73;;
60076;SDS011;45950;45.208;20.374;2022-10-16T08:00:29;33.17;;;17.42;;
60076;SDS011;45950;45.208;20.374;2022-10-16T08:02:56;23.52;;;13.18;;
60076;SDS011;45950;45.208;20.374;2022-10-16T08:05:25;15.13;;;9.40;;
60076;SDS011;45950;45.208;20.374;2022-10-16T08:07:51;14.23;;;7.13;;
60076;SDS011;45950;45.208;20.374;2022-10-16T08:10:19;8.27;;;5.60;;
60076;SDS011;45950;45.208;20.374;2022-10-16T08:12:47;11.57;;;5.53;;
60076;SDS011;45950;45.208;20.374;2022-10-16T08:15:13;10.70;;;5.45;;
60076;SDS011;45950;45.208;20.374;2022-10-16T08:17:42;7.10;;;5.43;;
60076;SDS011;45950;45.208;20.374;2022-10-16T08:20:10;7.00;;;4.82;;
60076;SDS011;45950;45.208;20.374;2022-10-16T08:22:36;5.88;;;4.75;;
60076;SDS011;45950;45.208;20.374;2022-10-16T08:25:03;8.50;;;4.50;;
60076;SDS011;45950;45.208;20.374;2022-10-16T08:27:31;7.53;;;4.95;;
60076;SDS011;45950;45.208;20.374;2022-10-16T08:29:57;7.25;;;4.72;;
60076;SDS011;45950;45.208;20.374;2022-10-16T08:32:24;8.25;;;4.63;;
60076;SDS011;45950;45.208;20.374;2022-10-16T08:34:52;10.35;;;5.32;;
60076;SDS011;45950;45.208;20.374;2022-10-16T08:37:18;8.25;;;4.50;;
60076;SDS011;45950;45.208;20.374;2022-10-16T08:39:45;7.40;;;4.53;;
60076;SDS011;45950;45.208;20.374;2022-10-16T08:42:15;8.70;;;4.05;;
60076;SDS011;45950;45.208;20.374;2022-10-16T08:44:53;6.78;;;4.78;;
60076;SDS011;45950;45.208;20.374;2022-10-16T08:47:25;6.85;;;3.97;;
60076;SDS011;45950;45.208;20.374;2022-10-16T08:49:57;6.07;;;3.92;;
60076;SDS011;45950;45.208;20.374;2022-10-16T08:52:25;9.55;;;4.47;;
60076;SDS011;45950;45.208;20.374;2022-10-16T08:54:55;6.57;;;4.32;;
60076;SDS011;45950;45.208;20.374;2022-10-16T08:57:23;9.43;;;4.38;;
60076;SDS011;45950;45.208;20.374;2022-10-16T08:59:51;12.65;;;5.05;;
60076;SDS011;45950;45.208;20.374;2022-10-16T09:02:23;8.85;;;4.43;;
60076;SDS011;45950;45.208;20.374;2022-10-16T09:05:00;6.38;;;3.45;;
60076;SDS011;45950;45.208;20.374;2022-10-16T09:07:30;11.35;;;5.47;;
60076;SDS011;45950;45.208;20.374;2022-10-16T09:10:02;10.20;;;5.68;;
60076;SDS011;45950;45.208;20.374;2022-10-16T09:12:31;11.60;;;6.53;;
60076;SDS011;45950;45.208;20.374;2022-10-16T09:15:02;12.93;;;6.82;;
60076;SDS011;45950;45.208;20.374;2022-10-16T09:17:39;13.70;;;4.88;;
60076;SDS011;45950;45.208;20.374;2022-10-16T09:20:23;8.52;;;5.45;;
60076;SDS011;45950;45.208;20.374;2022-10-16T09:22:53;7.70;;;4.65;;
60076;SDS011;45950;45.208;20.374;2022-10-16T09:25:21;6.30;;;4.13;;
60076;SDS011;45950;45.208;20.374;2022-10-16T09:27:48;7.65;;;4.00;;
60076;SDS011;45950;45.208;20.374;2022-10-16T09:30:19;7.30;;;3.80;;
60076;SDS011;45950;45.208;20.374;2022-10-16T09:32:46;7.35;;;4.45;;
60076;SDS011;45950;45.208;20.374;2022-10-16T09:35:14;10.23;;;4.88;;
60076;SDS011;45950;45.208;20.374;2022-10-16T09:37:44;13.07;;;7.07;;
60076;SDS011;45950;45.208;20.374;2022-10-16T09:40:12;10.45;;;6.90;;
60076;SDS011;45950;45.208;20.374;2022-10-16T09:42:39;6.30;;;3.78;;
60076;SDS011;45950;45.208;20.374;2022-10-16T09:45:19;12.50;;;8.00;;
60076;SDS011;45950;45.208;20.374;2022-10-16T09:47:46;9.20;;;6.13;;
60076;SDS011;45950;45.208;20.374;2022-10-16T09:50:19;13.55;;;5.65;;
60076;SDS011;45950;45.208;20.374;2022-10-16T09:55:16;12.77;;;7.72;;
60076;SDS011;45950;45.208;20.374;2022-10-16T09:57:48;9.35;;;5.13;;
60076;SDS011;45950;45.208;20.374;2022-10-16T10:00:16;6.80;;;4.45;;
60076;SDS011;45950;45.208;20.374;2022-10-16T10:02:42;11.73;;;7.97;;
60076;SDS011;45950;45.208;20.374;2022-10-16T10:05:17;28.23;;;15.45;;
60076;SDS011;45950;45.208;20.374;2022-10-16T10:07:44;18.85;;;12.20;;
60076;SDS011;45950;45.208;20.374;2022-10-16T10:10:19;21.52;;;13.85;;
60076;SDS011;45950;45.208;20.374;2022-10-16T10:12:47;8.43;;;5.07;;
60076;SDS011;45950;45.208;20.374;2022-10-16T10:15:14;15.60;;;9.10;;
60076;SDS011;45950;45.208;20.374;2022-10-16T10:17:45;8.45;;;5.63;;
60076;SDS011;45950;45.208;20.374;2022-10-16T10:20:15;10.02;;;4.75;;
60076;SDS011;45950;45.208;20.374;2022-10-16T10:22:45;8.38;;;4.95;;
60076;SDS011;45950;45.208;20.374;2022-10-16T10:25:15;8.13;;;5.38;;
60076;SDS011;45950;45.208;20.374;2022-10-16T10:27:50;7.65;;;4.07;;
60076;SDS011;45950;45.208;20.374;2022-10-16T10:30:20;22.45;;;17.38;;
60076;SDS011;45950;45.208;20.374;2022-10-16T10:32:51;38.63;;;30.55;;
60076;SDS011;45950;45.208;20.374;2022-10-16T10:35:21;11.02;;;6.90;;
60076;SDS011;45950;45.208;20.374;2022-10-16T10:37:51;15.52;;;11.70;;
60076;SDS011;45950;45.208;20.374;2022-10-16T10:40:39;10.60;;;7.60;;
60076;SDS011;45950;45.208;20.374;2022-10-16T10:43:10;10.68;;;5.78;;
60076;SDS011;45950;45.208;20.374;2022-10-16T10:45:41;7.75;;;5.40;;
60076;SDS011;45950;45.208;20.374;2022-10-16T10:51:14;7.43;;;4.63;;
60076;SDS011;45950;45.208;20.374;2022-10-16T10:53:50;6.85;;;4.32;;
60076;SDS011;45950;45.208;20.374;2022-10-16T10:56:22;11.25;;;3.78;;
60076;SDS011;45950;45.208;20.374;2022-10-16T10:58:59;5.78;;;3.92;;
60076;SDS011;45950;45.208;20.374;2022-10-16T11:01:30;6.90;;;4.20;;
60076;SDS011;45950;45.208;20.374;2022-10-16T11:04:08;7.43;;;4.68;;
60076;SDS011;45950;45.208;20.374;2022-10-16T11:06:51;6.07;;;4.00;;
60076;SDS011;45950;45.208;20.374;2022-10-16T11:09:21;8.60;;;4.53;;
60076;SDS011;45950;45.208;20.374;2022-10-16T11:11:51;8.82;;;4.50;;
60076;SDS011;45950;45.208;20.374;2022-10-16T11:14:21;4.47;;;3.80;;
60076;SDS011;45950;45.208;20.374;2022-10-16T11:16:51;21.25;;;9.70;;
60076;SDS011;45950;45.208;20.374;2022-10-16T11:19:29;17.65;;;9.82;;
60076;SDS011;45950;45.208;20.374;2022-10-16T11:22:01;9.75;;;5.07;;
60076;SDS011;45950;45.208;20.374;2022-10-16T11:24:31;6.53;;;4.03;;
60076;SDS011;45950;45.208;20.374;2022-10-16T11:27:01;9.02;;;5.60;;
60076;SDS011;45950;45.208;20.374;2022-10-16T11:29:32;5.88;;;4.13;;
60076;SDS011;45950;45.208;20.374;2022-10-16T11:31:59;7.32;;;4.68;;
60076;SDS011;45950;45.208;20.374;2022-10-16T11:34:28;6.03;;;3.90;;
60076;SDS011;45950;45.208;20.374;2022-10-16T11:36:58;6.40;;;3.90;;
60076;SDS011;45950;45.208;20.374;2022-10-16T11:39:28;4.18;;;3.30;;
60076;SDS011;45950;45.208;20.374;2022-10-16T11:41:55;11.68;;;4.25;;
60076;SDS011;45950;45.208;20.374;2022-10-16T11:44:41;7.47;;;4.10;;
60076;SDS011;45950;45.208;20.374;2022-10-16T11:47:15;6.15;;;4.05;;
60076;SDS011;45950;45.208;20.374;2022-10-16T11:49:45;4.63;;;3.85;;
60076;SDS011;45950;45.208;20.374;2022-10-16T11:52:15;8.70;;;4.57;;
60076;SDS011;45950;45.208;20.374;2022-10-16T11:54:44;5.78;;;3.55;;
60076;SDS011;45950;45.208;20.374;2022-10-16T11:57:14;5.85;;;4.15;;
60076;SDS011;45950;45.208;20.374;2022-10-16T11:59:44;6.90;;;4.13;;
60076;SDS011;45950;45.208;20.374;2022-10-16T12:04:59;5.45;;;3.85;;
60076;SDS011;45950;45.208;20.374;2022-10-16T12:07:32;7.28;;;4.55;;
60076;SDS011;45950;45.208;20.374;2022-10-16T12:10:09;7.93;;;4.15;;
60076;SDS011;45950;45.208;20.374;2022-10-16T12:12:37;7.72;;;3.95;;
60076;SDS011;45950;45.208;20.374;2022-10-16T12:15:18;6.85;;;4.25;;
60076;SDS011;45950;45.208;20.374;2022-10-16T12:17:45;5.57;;;4.38;;
60076;SDS011;45950;45.208;20.374;2022-10-16T12:20:22;8.23;;;4.28;;
60076;SDS011;45950;45.208;20.374;2022-10-16T12:22:49;21.45;;;4.88;;
60076;SDS011;45950;45.208;20.374;2022-10-16T12:25:20;8.45;;;4.55;;
60076;SDS011;45950;45.208;20.374;2022-10-16T12:30:35;6.85;;;4.53;;
60076;SDS011;45950;45.208;20.374;2022-10-16T12:33:03;6.50;;;4.03;;
60076;SDS011;45950;45.208;20.374;2022-10-16T12:35:31;7.30;;;3.97;;
60076;SDS011;45950;45.208;20.374;2022-10-16T12:38:06;12.93;;;3.83;;
60076;SDS011;45950;45.208;20.374;2022-10-16T12:40:34;8.80;;;4.72;;
60076;SDS011;45950;45.208;20.374;2022-10-16T12:43:10;6.38;;;4.50;;
60076;SDS011;45950;45.208;20.374;2022-10-16T12:45:39;5.85;;;4.25;;
60076;SDS011;45950;45.208;20.374;2022-10-16T12:48:18;6.70;;;4.82;;
60076;SDS011;45950;45.208;20.374;2022-10-16T12:50:45;7.38;;;4.70;;
60076;SDS011;45950;45.208;20.374;2022-10-16T12:53:18;6.53;;;4.68;;
60076;SDS011;45950;45.208;20.374;2022-10-16T12:55:47;7.68;;;4.40;;
60076;SDS011;45950;45.208;20.374;2022-10-16T12:58:37;8.57;;;5.57;;
60076;SDS011;45950;45.208;20.374;2022-10-16T13:01:12;10.13;;;6.20;;
60076;SDS011;45950;45.208;20.374;2022-10-16T13:03:47;9.40;;;7.32;;
60076;SDS011;45950;45.208;20.374;2022-10-16T13:06:18;8.60;;;5.68;;
60076;SDS011;45950;45.208;20.374;2022-10-16T13:08:56;9.48;;;6.00;;
60076;SDS011;45950;45.208;20.374;2022-10-16T13:14:39;9.70;;;6.53;;
60076;SDS011;45950;45.208;20.374;2022-10-16T13:17:13;8.25;;;6.55;;
60076;SDS011;45950;45.208;20.374;2022-10-16T13:19:44;9.43;;;5.82;;
60076;SDS011;45950;45.208;20.374;2022-10-16T13:22:14;8.25;;;5.07;;
60076;SDS011;45950;45.208;20.374;2022-10-16T13:24:48;8.50;;;4.63;;
60076;SDS011;45950;45.208;20.374;2022-10-16T13:27:19;6.78;;;4.75;;
60076;SDS011;45950;45.208;20.374;2022-10-16T13:29:52;6.37;;;4.87;;
60076;SDS011;45950;45.208;20.374;2022-10-16T13:32:21;9.50;;;4.90;;
60076;SDS011;45950;45.208;20.374;2022-10-16T13:34:48;8.57;;;5.55;;
60076;SDS011;45950;45.208;20.374;2022-10-16T13:37:18;12.10;;;6.68;;
60076;SDS011;45950;45.208;20.374;2022-10-16T13:39:45;21.10;;;7.88;;
60076;SDS011;45950;45.208;20.374;2022-10-16T13:42:13;11.23;;;4.95;;
60076;SDS011;45950;45.208;20.374;2022-10-16T13:44:42;8.82;;;4.57;;
60076;SDS011;45950;45.208;20.374;2022-10-16T13:47:15;7.43;;;4.40;;
60076;SDS011;45950;45.208;20.374;2022-10-16T13:49:43;7.45;;;4.78;;
60076;SDS011;45950;45.208;20.374;2022-10-16T13:52:15;7.47;;;4.28;;
60076;SDS011;45950;45.208;20.374;2022-10-16T13:54:42;8.18;;;4.22;;
60076;SDS011;45950;45.208;20.374;2022-10-16T13:57:11;7.22;;;4.40;;
60076;SDS011;45950;45.208;20.374;2022-10-16T13:59:38;9.27;;;5.13;;
60076;SDS011;45950;45.208;20.374;2022-10-16T14:02:08;7.00;;;4.22;;
60076;SDS011;45950;45.208;20.374;2022-10-16T14:04:37;6.05;;;3.85;;
60076;SDS011;45950;45.208;20.374;2022-10-16T14:07:11;8.88;;;4.30;;
60076;SDS011;45950;45.208;20.374;2022-10-16T14:09:39;6.78;;;4.38;;
60076;SDS011;45950;45.208;20.374;2022-10-16T14:12:08;10.48;;;4.72;;
60076;SDS011;45950;45.208;20.374;2022-10-16T14:14:35;6.28;;;4.65;;
60076;SDS011;45950;45.208;20.374;2022-10-16T14:17:06;9.00;;;4.65;;
60076;SDS011;45950;45.208;20.374;2022-10-16T14:19:39;7.32;;;4.05;;
60076;SDS011;45950;45.208;20.374;2022-10-16T14:22:16;6.15;;;4.63;;
60076;SDS011;45950;45.208;20.374;2022-10-16T14:27:56;5.38;;;4.15;;
60076;SDS011;45950;45.208;20.374;2022-10-16T14:30:23;7.75;;;3.92;;
60076;SDS011;45950;45.208;20.374;2022-10-16T14:32:54;7.10;;;4.63;;
60076;SDS011;45950;45.208;20.374;2022-10-16T14:35:24;9.90;;;5.05;;
60076;SDS011;45950;45.208;20.374;2022-10-16T14:37:55;5.80;;;4.50;;
60076;SDS011;45950;45.208;20.374;2022-10-16T14:40:23;7.97;;;5.50;;
60076;SDS011;45950;45.208;20.374;2022-10-16T14:42:50;7.22;;;5.30;;
60076;SDS011;45950;45.208;20.374;2022-10-16T14:45:18;12.48;;;4.70;;
60076;SDS011;45950;45.208;20.374;2022-10-16T14:47:49;10.63;;;5.65;;
60076;SDS011;45950;45.208;20.374;2022-10-16T14:50:17;10.10;;;4.55;;
60076;SDS011;45950;45.208;20.374;2022-10-16T14:52:43;8.80;;;5.32;;
60076;SDS011;45950;45.208;20.374;2022-10-16T14:55:11;12.48;;;6.80;;
60076;SDS011;45950;45.208;20.374;2022-10-16T14:57:38;9.70;;;6.10;;